createdAt,value
2022-11-10T00:00:22.100Z,10.40
2022-11-10T00:02:50.259Z,10.30
2022-11-10T00:05:18.475Z,10.30
2022-11-10T00:07:47.713Z,10.30
2022-11-10T00:10:16.983Z,10.30
2022-11-10T00:12:45.104Z,10.30
2022-11-10T00:15:30.500Z,10.30
2022-11-10T00:17:58.587Z,10.30
2022-11-10T00:20:26.604Z,10.30
2022-11-10T00:22:56.404Z,10.20
2022-11-10T00:25:25.020Z,10.30
2022-11-10T00:27:53.066Z,10.30
2022-11-10T00:30:21.177Z,10.30
2022-11-10T00:32:49.369Z,10.20
2022-11-10T00:35:17.529Z,10.30
2022-11-10T00:37:45.587Z,10.30
2022-11-10T00:40:15.238Z,10.30
2022-11-10T00:42:43.348Z,10.30
2022-11-10T00:45:11.838Z,10.30
2022-11-10T00:47:39.949Z,10.30
2022-11-10T00:50:09.433Z,10.30
2022-11-10T00:52:37.506Z,10.30
2022-11-10T00:55:06.385Z,10.30
2022-11-10T00:57:35.847Z,10.30
2022-11-10T01:00:04.005Z,10.30
2022-11-10T01:02:32.032Z,10.30
2022-11-10T01:05:00.114Z,10.30
2022-11-10T01:07:27.999Z,10.30
2022-11-10T01:09:56.107Z,10.30
2022-11-10T01:12:24.097Z,10.30
2022-11-10T01:14:53.579Z,10.30
2022-11-10T01:17:21.582Z,10.30
2022-11-10T01:19:49.669Z,10.30
2022-11-10T01:22:17.758Z,10.20
2022-11-10T01:24:45.796Z,10.20
2022-11-10T01:27:13.911Z,10.30
2022-11-10T01:29:41.980Z,10.30
2022-11-10T01:32:11.369Z,10.20
2022-11-10T01:34:39.417Z,10.20
2022-11-10T01:37:07.500Z,10.20
2022-11-10T01:39:36.822Z,10.20
2022-11-10T01:42:05.101Z,10.10
2022-11-10T01:44:33.154Z,10.10
2022-11-10T01:47:01.249Z,10.10
2022-11-10T01:49:32.384Z,10.10
2022-11-10T01:52:05.546Z,10.10
2022-11-10T01:54:39.880Z,10.00
2022-11-10T01:57:11.064Z,10.10
2022-11-10T01:59:43.039Z,10.10
2022-11-10T02:02:15.248Z,10.10
2022-11-10T02:04:45.404Z,10.10
2022-11-10T02:07:13.487Z,10.10
2022-11-10T02:09:41.753Z,10.10
2022-11-10T02:12:09.888Z,10.10
2022-11-10T02:14:38.528Z,10.10
2022-11-10T02:17:06.547Z,10.10
2022-11-10T02:19:41.965Z,10.10
2022-11-10T02:22:11.422Z,10.10
2022-11-10T02:24:39.475Z,10.20
2022-11-10T02:27:07.560Z,10.20
2022-11-10T02:29:35.627Z,10.20
2022-11-10T02:32:03.755Z,10.20
2022-11-10T02:34:31.864Z,10.10
2022-11-10T02:36:59.948Z,10.10
2022-11-10T02:39:29.465Z,10.10
2022-11-10T02:41:57.505Z,10.20
2022-11-10T02:44:25.708Z,10.10
2022-11-10T02:46:53.828Z,10.20
2022-11-10T02:49:21.855Z,10.10
2022-11-10T02:51:49.903Z,10.10
2022-11-10T02:54:18.003Z,10.10
2022-11-10T02:56:47.504Z,10.10
2022-11-10T02:59:15.598Z,10.10
2022-11-10T03:01:43.699Z,10.10
2022-11-10T03:04:11.778Z,10.10
2022-11-10T03:06:39.922Z,10.10
2022-11-10T03:09:08.025Z,10.10
2022-11-10T03:11:36.183Z,10.10
2022-11-10T03:14:05.574Z,10.10
2022-11-10T03:16:33.688Z,10.10
2022-11-10T03:19:01.860Z,10.20
2022-11-10T03:21:29.927Z,10.10
2022-11-10T03:23:58.005Z,10.10
2022-11-10T03:26:26.107Z,10.10
2022-11-10T03:28:54.197Z,10.00
2022-11-10T03:31:23.596Z,10.10
2022-11-10T03:33:51.628Z,10.10
2022-11-10T03:36:19.758Z,10.10
2022-11-10T03:38:47.778Z,10.00
2022-11-10T03:41:20.470Z,10.00
2022-11-10T03:43:49.273Z,10.00
2022-11-10T03:46:17.705Z,10.00
2022-11-10T03:48:52.913Z,10.00
2022-11-10T03:51:22.164Z,10.00
2022-11-10T03:53:50.485Z,10.00
2022-11-10T03:56:18.548Z,9.90
2022-11-10T03:58:46.627Z,9.90
2022-11-10T04:01:14.771Z,9.90
2022-11-10T04:03:47.567Z,9.90
2022-11-10T04:06:34.641Z,9.90
2022-11-10T04:09:02.875Z,9.90
2022-11-10T04:11:50.200Z,9.80
2022-11-10T04:14:35.576Z,9.90
2022-11-10T04:17:04.238Z,9.90
2022-11-10T04:19:32.352Z,9.80
2022-11-10T04:22:01.757Z,9.90
2022-11-10T04:24:29.772Z,9.90
2022-11-10T04:26:57.877Z,9.90
2022-11-10T04:29:25.919Z,10.00
2022-11-10T04:31:53.983Z,10.00
2022-11-10T04:34:22.056Z,9.90
2022-11-10T04:36:50.128Z,9.90
2022-11-10T04:39:19.566Z,9.90
2022-11-10T04:41:47.853Z,9.90
2022-11-10T04:44:15.879Z,9.80
2022-11-10T04:46:44.185Z,9.90
2022-11-10T04:49:12.978Z,9.80
2022-11-10T04:51:41.134Z,9.80
2022-11-10T04:54:09.890Z,9.70
2022-11-10T04:56:40.240Z,9.70
2022-11-10T04:59:08.490Z,9.70
2022-11-10T05:01:36.591Z,9.60
2022-11-10T05:04:05.619Z,9.60
2022-11-10T05:06:33.713Z,9.60
2022-11-10T05:09:01.859Z,9.60
2022-11-10T05:11:29.884Z,9.60
2022-11-10T05:13:59.327Z,9.50
2022-11-10T05:16:27.409Z,9.60
2022-11-10T05:18:56.052Z,9.60
2022-11-10T05:21:24.156Z,9.50
2022-11-10T05:23:52.182Z,9.50
2022-11-10T05:26:20.292Z,9.50
2022-11-10T05:28:48.390Z,9.50
2022-11-10T05:31:17.787Z,9.50
2022-11-10T05:33:45.888Z,9.60
2022-11-10T05:36:13.921Z,9.50
2022-11-10T05:38:43.912Z,9.60
2022-11-10T05:41:12.540Z,9.60
2022-11-10T05:43:40.791Z,9.50
2022-11-10T05:46:08.959Z,9.60
2022-11-10T05:48:38.449Z,9.60
2022-11-10T05:51:07.699Z,9.50
2022-11-10T05:53:35.740Z,9.60
2022-11-10T05:56:03.845Z,9.60
2022-11-10T05:58:32.230Z,9.60
2022-11-10T06:01:00.559Z,9.60
2022-11-10T06:03:29.082Z,9.60
2022-11-10T06:05:58.813Z,9.60
2022-11-10T06:08:27.151Z,9.60
2022-11-10T06:10:55.480Z,9.60
2022-11-10T06:13:23.834Z,9.60
2022-11-10T06:15:52.203Z,9.60
2022-11-10T06:18:20.312Z,9.60
2022-11-10T06:20:48.613Z,9.60
2022-11-10T06:23:18.081Z,9.60
2022-11-10T06:25:46.126Z,9.70
2022-11-10T06:28:14.941Z,9.70
2022-11-10T06:30:43.197Z,9.70
2022-11-10T06:33:11.244Z,9.70
2022-11-10T06:35:39.364Z,9.70
2022-11-10T06:38:08.548Z,9.70
2022-11-10T06:40:38.045Z,9.70
2022-11-10T06:43:06.153Z,9.60
2022-11-10T06:45:34.204Z,9.60
2022-11-10T06:48:03.126Z,9.70
2022-11-10T06:50:31.754Z,9.70
2022-11-10T06:53:01.309Z,9.70
2022-11-10T06:55:29.610Z,9.70
2022-11-10T06:57:59.953Z,9.70
2022-11-10T07:00:29.927Z,9.70
2022-11-10T07:03:02.193Z,9.70
2022-11-10T07:05:30.847Z,9.70
2022-11-10T07:08:03.796Z,9.70
2022-11-10T07:10:32.607Z,9.70
2022-11-10T07:13:04.436Z,9.70
2022-11-10T07:15:33.666Z,9.80
2022-11-10T07:18:02.602Z,9.80
2022-11-10T07:20:30.904Z,9.90
2022-11-10T07:23:00.381Z,9.90
2022-11-10T07:25:29.058Z,9.90
2022-11-10T07:27:58.387Z,9.90
2022-11-10T07:30:27.993Z,10.00
2022-11-10T07:33:00.131Z,10.00
2022-11-10T07:35:28.455Z,10.00
2022-11-10T07:37:56.617Z,10.00
2022-11-10T07:40:24.702Z,10.00
2022-11-10T07:42:52.624Z,10.00
2022-11-10T07:45:20.597Z,10.10
2022-11-10T07:47:50.329Z,10.10
2022-11-10T07:50:18.598Z,10.20
2022-11-10T07:52:46.490Z,10.20
2022-11-10T07:55:14.359Z,10.20
2022-11-10T07:57:42.310Z,10.30
2022-11-10T08:00:12.635Z,10.40
2022-11-10T08:02:40.564Z,10.50
2022-11-10T08:05:10.596Z,10.60
2022-11-10T08:07:38.603Z,10.60
2022-11-10T08:10:07.375Z,10.70
2022-11-10T08:12:35.245Z,10.80
2022-11-10T08:15:03.541Z,10.80
2022-11-10T08:17:31.463Z,10.90
2022-11-10T08:19:59.327Z,11.00
2022-11-10T08:22:28.611Z,11.10
2022-11-10T08:24:56.508Z,11.20
2022-11-10T08:27:24.452Z,11.40
2022-11-10T08:29:52.361Z,11.50
2022-11-10T08:32:21.233Z,11.70
2022-11-10T08:34:49.245Z,11.70
2022-11-10T08:37:17.225Z,11.80
2022-11-10T08:39:46.539Z,11.90
2022-11-10T08:42:14.479Z,12.00
2022-11-10T08:44:42.409Z,12.00
2022-11-10T08:47:10.320Z,12.10
2022-11-10T08:49:38.209Z,12.20
2022-11-10T08:52:06.151Z,12.20
2022-11-10T08:54:34.093Z,12.20
2022-11-10T08:57:03.356Z,12.20
2022-11-10T08:59:31.245Z,12.20
2022-11-10T09:01:59.570Z,12.30
2022-11-10T09:04:27.718Z,12.30
2022-11-10T09:06:57.806Z,12.40
2022-11-10T09:09:26.501Z,12.50
2022-11-10T09:11:54.709Z,12.60
2022-11-10T09:14:24.185Z,12.70
2022-11-10T09:16:52.130Z,12.80
2022-11-10T09:19:20.379Z,12.80
2022-11-10T09:21:48.355Z,12.80
2022-11-10T09:24:16.410Z,12.80
2022-11-10T09:26:47.520Z,12.90
2022-11-10T09:29:15.690Z,12.90
2022-11-10T09:31:45.949Z,13.10
2022-11-10T09:34:14.056Z,13.10
2022-11-10T09:36:41.959Z,13.20
2022-11-10T09:39:09.971Z,13.20
2022-11-10T09:41:41.382Z,13.20
2022-11-10T09:44:15.743Z,13.40
2022-11-10T09:46:49.314Z,13.50
2022-11-10T09:49:31.704Z,13.60
2022-11-10T09:52:01.452Z,13.70
2022-11-10T09:54:38.799Z,13.80
2022-11-10T09:57:08.908Z,13.90
2022-11-10T09:59:37.959Z,14.10
2022-11-10T10:02:20.006Z,14.10
2022-11-10T10:05:32.559Z,14.20
2022-11-10T10:08:03.506Z,14.20
2022-11-10T10:10:39.201Z,14.30
2022-11-10T10:13:32.301Z,14.40
2022-11-10T10:16:12.936Z,14.30
2022-11-10T10:18:51.406Z,14.30
2022-11-10T10:21:40.124Z,14.30
2022-11-10T10:24:19.847Z,14.30
2022-11-10T10:26:52.586Z,14.50
2022-11-10T10:29:24.267Z,14.60
2022-11-10T10:31:54.176Z,14.50
2022-11-10T10:34:27.882Z,14.60
2022-11-10T10:36:56.529Z,14.60
2022-11-10T10:39:30.333Z,14.60
2022-11-10T10:41:58.505Z,14.70
2022-11-10T10:44:26.505Z,14.70
2022-11-10T10:46:58.318Z,14.70
2022-11-10T10:49:30.551Z,14.70
2022-11-10T10:52:04.805Z,14.80
2022-11-10T10:54:34.588Z,14.90
2022-11-10T10:57:07.973Z,14.90
2022-11-10T10:59:35.992Z,15.10
2022-11-10T11:02:03.884Z,15.40
2022-11-10T11:04:35.969Z,15.40
2022-11-10T11:07:06.457Z,15.40
2022-11-10T11:09:42.869Z,15.50
2022-11-10T11:12:13.673Z,15.60
2022-11-10T11:14:45.849Z,15.40
2022-11-10T11:17:18.946Z,15.30
2022-11-10T11:19:58.549Z,15.10
2022-11-10T11:22:47.640Z,15.10
2022-11-10T11:25:22.358Z,15.00
2022-11-10T11:27:57.388Z,15.00
2022-11-10T11:30:29.469Z,15.00
2022-11-10T11:33:15.547Z,14.90
2022-11-10T11:35:50.257Z,14.90
2022-11-10T11:38:25.966Z,15.00
2022-11-10T11:41:02.830Z,15.10
2022-11-10T11:44:09.477Z,15.10
2022-11-10T11:46:49.121Z,15.20
2022-11-10T11:49:36.936Z,15.20
2022-11-10T11:52:12.880Z,15.40
2022-11-10T11:55:00.151Z,15.40
2022-11-10T11:57:40.336Z,15.30
2022-11-10T12:00:14.068Z,15.20
2022-11-10T12:03:08.441Z,15.30
2022-11-10T12:05:47.222Z,15.20
2022-11-10T12:08:27.692Z,15.30
2022-11-10T12:11:08.369Z,15.40
2022-11-10T12:13:51.512Z,15.40
2022-11-10T12:16:25.857Z,15.40
2022-11-10T12:19:03.297Z,15.40
2022-11-10T12:21:55.270Z,15.40
2022-11-10T12:24:42.427Z,15.40
2022-11-10T12:27:15.937Z,15.40
2022-11-10T12:29:46.662Z,15.50
2022-11-10T12:32:20.306Z,15.60
2022-11-10T12:34:52.320Z,15.60
2022-11-10T12:37:28.252Z,15.60
2022-11-10T12:40:02.953Z,15.60
2022-11-10T12:42:33.852Z,15.60
2022-11-10T12:45:05.349Z,15.50
2022-11-10T12:47:40.134Z,15.50
2022-11-10T12:50:48.385Z,15.60
2022-11-10T12:53:22.986Z,15.50
2022-11-10T12:55:55.964Z,15.50
2022-11-10T12:58:24.824Z,15.50
2022-11-10T13:00:59.104Z,15.50
2022-11-10T13:03:30.238Z,15.60
2022-11-10T13:06:00.566Z,15.50
2022-11-10T13:08:33.038Z,15.50
2022-11-10T13:11:06.419Z,15.60
2022-11-10T13:13:47.852Z,15.50
2022-11-10T13:16:51.919Z,15.50
2022-11-10T13:19:50.098Z,15.60
2022-11-10T13:22:37.208Z,15.50
2022-11-10T13:25:43.171Z,15.50
2022-11-10T13:28:13.307Z,15.50
2022-11-10T13:30:45.354Z,15.50
2022-11-10T13:33:34.391Z,15.40
2022-11-10T13:36:02.645Z,15.40
2022-11-10T13:38:41.517Z,15.40
2022-11-10T13:41:22.191Z,15.50
2022-11-10T13:43:53.807Z,15.50
2022-11-10T13:46:34.592Z,15.50
2022-11-10T13:49:24.368Z,15.40
2022-11-10T13:52:05.975Z,15.40
2022-11-10T13:55:03.809Z,15.50
2022-11-10T13:57:36.256Z,15.40
2022-11-10T14:00:25.429Z,15.50
2022-11-10T14:02:56.201Z,15.40
2022-11-10T14:06:05.636Z,15.30
2022-11-10T14:08:42.072Z,15.30
2022-11-10T14:11:19.046Z,15.30
2022-11-10T14:13:51.730Z,15.20
2022-11-10T14:16:24.275Z,15.20
2022-11-10T14:18:59.073Z,15.10
2022-11-10T14:21:33.008Z,15.10
2022-11-10T14:24:10.768Z,15.10
2022-11-10T14:26:43.369Z,15.00
2022-11-10T14:29:34.683Z,15.00
2022-11-10T14:32:06.666Z,15.00
2022-11-10T14:34:47.350Z,15.00
2022-11-10T14:37:22.762Z,14.90
2022-11-10T14:39:54.042Z,14.90
2022-11-10T14:42:25.288Z,14.80
2022-11-10T14:45:07.581Z,14.80
2022-11-10T14:47:37.686Z,14.80
2022-11-10T14:50:08.358Z,14.80
2022-11-10T14:52:40.738Z,14.70
2022-11-10T14:55:15.913Z,14.70
2022-11-10T14:57:49.142Z,14.70
2022-11-10T15:00:20.355Z,14.70
2022-11-10T15:02:49.815Z,14.70
2022-11-10T15:05:18.169Z,14.70
2022-11-10T15:07:46.871Z,14.70
2022-11-10T15:10:18.747Z,14.60
2022-11-10T15:12:59.898Z,14.60
2022-11-10T15:15:28.048Z,14.50
2022-11-10T15:17:57.556Z,14.50
2022-11-10T15:20:34.803Z,14.40
2022-11-10T15:23:04.481Z,14.40
2022-11-10T15:25:36.568Z,14.40
2022-11-10T15:28:15.458Z,14.30
2022-11-10T15:30:51.010Z,14.30
2022-11-10T15:33:26.503Z,14.20
2022-11-10T15:35:55.951Z,14.20
2022-11-10T15:38:32.707Z,14.10
2022-11-10T15:41:15.942Z,14.20
2022-11-10T15:43:44.115Z,14.10
2022-11-10T15:46:18.071Z,14.00
2022-11-10T15:48:50.844Z,14.00
2022-11-10T15:51:25.956Z,13.90
2022-11-10T15:53:55.371Z,13.90
2022-11-10T15:56:25.811Z,13.80
2022-11-10T15:58:59.215Z,13.70
2022-11-10T16:01:31.866Z,13.70
2022-11-10T16:04:01.326Z,13.70
2022-11-10T16:06:30.658Z,13.60
2022-11-10T16:08:58.790Z,13.60
2022-11-10T16:11:27.401Z,13.60
2022-11-10T16:13:56.602Z,13.50
2022-11-10T16:16:25.637Z,13.50
2022-11-10T16:18:53.842Z,13.50
2022-11-10T16:21:24.925Z,13.40
2022-11-10T16:23:54.394Z,13.40
2022-11-10T16:26:24.793Z,13.30
2022-11-10T16:28:53.109Z,13.30
2022-11-10T16:31:22.646Z,13.20
2022-11-10T16:33:51.518Z,13.10
2022-11-10T16:36:27.139Z,13.10
2022-11-10T16:38:55.922Z,13.10
2022-11-10T16:41:24.366Z,13.00
2022-11-10T16:43:52.463Z,12.90
2022-11-10T16:46:23.014Z,12.80
2022-11-10T16:48:53.151Z,12.80
2022-11-10T16:51:29.638Z,12.70
2022-11-10T16:53:59.472Z,12.70
2022-11-10T16:56:27.874Z,12.70
2022-11-10T16:58:56.019Z,12.70
2022-11-10T17:01:27.415Z,12.70
2022-11-10T17:03:58.324Z,12.70
2022-11-10T17:06:30.127Z,12.60
2022-11-10T17:09:02.660Z,12.50
2022-11-10T17:11:30.766Z,12.40
2022-11-10T17:13:58.820Z,12.40
2022-11-10T17:16:29.513Z,12.40
2022-11-10T17:18:59.619Z,12.40
2022-11-10T17:21:32.882Z,12.40
2022-11-10T17:24:02.759Z,12.30
2022-11-10T17:26:31.414Z,12.20
2022-11-10T17:28:59.664Z,12.20
2022-11-10T17:31:27.689Z,12.20
2022-11-10T17:33:55.837Z,12.20
2022-11-10T17:36:24.889Z,12.10
2022-11-10T17:38:54.383Z,12.10
2022-11-10T17:41:22.452Z,12.10
2022-11-10T17:43:50.643Z,12.10
2022-11-10T17:46:18.698Z,12.10
2022-11-10T17:48:47.827Z,12.10
2022-11-10T17:51:19.683Z,12.20
2022-11-10T17:53:48.097Z,12.10
2022-11-10T17:56:17.744Z,12.00
2022-11-10T17:58:46.822Z,12.10
2022-11-10T18:01:17.698Z,12.00
2022-11-10T18:03:46.523Z,12.00
2022-11-10T18:06:15.517Z,12.00
2022-11-10T18:08:43.964Z,11.90
2022-11-10T18:11:13.251Z,11.90
2022-11-10T18:13:43.662Z,11.90
2022-11-10T18:16:12.861Z,11.90
2022-11-10T18:18:41.020Z,11.90
2022-11-10T18:21:12.441Z,11.80
2022-11-10T18:23:40.517Z,11.90
2022-11-10T18:26:11.575Z,11.90
2022-11-10T18:28:42.080Z,11.90
2022-11-10T18:31:13.695Z,12.00
2022-11-10T18:33:41.808Z,12.00
2022-11-10T18:36:11.215Z,12.00
2022-11-10T18:38:39.263Z,12.00
2022-11-10T18:41:22.360Z,12.00
2022-11-10T18:43:50.642Z,11.90
2022-11-10T18:46:20.332Z,11.90
2022-11-10T18:48:48.804Z,11.90
2022-11-10T18:51:17.627Z,11.90
2022-11-10T18:53:45.750Z,11.80
2022-11-10T18:56:14.443Z,11.80
2022-11-10T18:58:43.133Z,11.80
2022-11-10T19:01:12.093Z,11.80
2022-11-10T19:03:42.804Z,11.70
2022-11-10T19:06:13.035Z,11.70
2022-11-10T19:08:41.465Z,11.70
2022-11-10T19:11:11.035Z,11.70
2022-11-10T19:13:39.996Z,11.70
2022-11-10T19:16:09.178Z,11.70
2022-11-10T19:18:38.705Z,11.70
2022-11-10T19:21:09.943Z,11.60
2022-11-10T19:23:38.509Z,11.60
2022-11-10T19:26:09.999Z,11.60
2022-11-10T19:28:38.180Z,11.60
2022-11-10T19:31:08.181Z,11.60
2022-11-10T19:33:39.617Z,11.60
2022-11-10T19:36:11.218Z,11.60
2022-11-10T19:38:39.556Z,11.60
2022-11-10T19:41:09.971Z,11.60
2022-11-10T19:43:40.616Z,11.60
2022-11-10T19:46:15.284Z,11.60
2022-11-10T19:48:43.932Z,11.60
2022-11-10T19:51:14.777Z,11.60
2022-11-10T19:53:43.399Z,11.50
2022-11-10T19:56:14.445Z,11.50
2022-11-10T19:58:43.417Z,11.50
2022-11-10T20:01:12.525Z,11.40
2022-11-10T20:03:40.960Z,11.40
2022-11-10T20:06:11.394Z,11.40
2022-11-10T20:08:40.932Z,11.40
2022-11-10T20:11:10.779Z,11.30
2022-11-10T20:13:40.417Z,11.30
2022-11-10T20:16:11.718Z,11.30
2022-11-10T20:18:41.814Z,11.30
2022-11-10T20:21:11.741Z,11.30
2022-11-10T20:23:41.822Z,11.30
2022-11-10T20:26:11.843Z,11.30
2022-11-10T20:28:41.222Z,11.30
2022-11-10T20:31:12.142Z,11.30
2022-11-10T20:33:40.615Z,11.30
2022-11-10T20:36:15.954Z,11.30
2022-11-10T20:38:49.131Z,11.20
2022-11-10T20:41:19.728Z,11.20
2022-11-10T20:43:48.844Z,11.20
2022-11-10T20:46:40.318Z,11.20
2022-11-10T20:49:07.174Z,11.20
2022-11-10T20:51:35.265Z,11.20
2022-11-10T20:54:05.077Z,11.20
2022-11-10T20:56:33.188Z,11.20
2022-11-10T20:59:01.423Z,11.20
2022-11-10T21:01:29.894Z,11.20
2022-11-10T21:03:58.168Z,11.20
2022-11-10T21:06:26.341Z,11.20
2022-11-10T21:08:56.121Z,11.20
2022-11-10T21:11:51.622Z,11.20
2022-11-10T21:14:19.777Z,11.20
2022-11-10T21:16:47.838Z,11.20
2022-11-10T21:19:15.904Z,11.10
2022-11-10T21:21:44.359Z,11.10
2022-11-10T21:24:12.728Z,11.20
2022-11-10T21:26:42.241Z,11.10
2022-11-10T21:29:11.592Z,11.10
2022-11-10T21:31:39.759Z,11.10
2022-11-10T21:34:07.971Z,11.10
2022-11-10T21:36:36.048Z,11.00
2022-11-10T21:39:04.098Z,11.10
2022-11-10T21:41:32.552Z,11.10
2022-11-10T21:44:01.996Z,11.10
2022-11-10T21:46:30.028Z,11.10
2022-11-10T21:49:01.940Z,11.10
2022-11-10T21:51:32.754Z,11.10
2022-11-10T21:54:00.778Z,11.10
2022-11-10T21:56:28.944Z,11.10
2022-11-10T21:58:57.050Z,11.10
2022-11-10T22:01:26.537Z,11.20
2022-11-10T22:03:54.627Z,11.10
2022-11-10T22:06:22.944Z,11.10
2022-11-10T22:08:50.991Z,11.10
2022-11-10T22:11:37.872Z,11.10
2022-11-10T22:14:29.909Z,11.20
2022-11-10T22:17:18.473Z,11.20
2022-11-10T22:19:46.592Z,11.10
2022-11-10T22:22:15.157Z,11.10
2022-11-10T22:24:43.216Z,11.10
2022-11-10T22:27:11.293Z,11.00
2022-11-10T22:29:39.351Z,11.00
2022-11-10T22:32:08.818Z,11.00
2022-11-10T22:34:36.932Z,11.00
2022-11-10T22:37:05.197Z,10.90
2022-11-10T22:39:47.253Z,10.90
2022-11-10T22:42:33.127Z,10.90
2022-11-10T22:45:01.174Z,10.80
2022-11-10T22:47:50.606Z,10.80
2022-11-10T22:50:18.698Z,10.80
2022-11-10T22:52:46.827Z,10.70
2022-11-10T22:55:15.074Z,10.70
2022-11-10T22:57:43.100Z,10.70
2022-11-10T23:00:12.458Z,10.70
2022-11-10T23:02:41.831Z,10.60
2022-11-10T23:05:10.144Z,10.60
2022-11-10T23:07:38.050Z,10.60
2022-11-10T23:10:06.860Z,10.60
2022-11-10T23:12:34.974Z,10.60
2022-11-10T23:15:03.020Z,10.60
2022-11-10T23:17:31.085Z,10.60
2022-11-10T23:20:00.486Z,10.60
2022-11-10T23:22:29.383Z,10.60
2022-11-10T23:24:57.728Z,10.60
2022-11-10T23:27:25.815Z,10.50
2022-11-10T23:29:53.916Z,10.50
2022-11-10T23:32:21.961Z,10.50
2022-11-10T23:34:50.056Z,10.50
2022-11-10T23:37:21.012Z,10.50
2022-11-10T23:39:49.026Z,10.50
2022-11-10T23:42:17.147Z,10.50
2022-11-10T23:44:45.211Z,10.50
2022-11-10T23:47:13.271Z,10.50
2022-11-10T23:49:41.351Z,10.50
2022-11-10T23:52:09.424Z,10.50
2022-11-10T23:54:38.830Z,10.60
2022-11-10T23:57:06.896Z,10.60
2022-11-10T23:59:34.976Z,10.70
